Bahri Yanbu — HZFH — position and weather

sailwx.info

Track history (hours):
 
Tides and Currents Weather Stations Pressure Air Temp Water Temp Dewpoint Dewpoint Depression Visibility Wind Speed Wind Dir Waves Ship Positions

Bahri Yanbu

Last reported at 2018-Jan-10 15:52 UTC. Time now 2018-Jan-22 03:48 UTC.
Position N 31°22' E 032°20'.
Warning: this ship's position is 11 days out of date.

Length 205 m; draft 8 m.

Type: Cargo ship. MMSI: 403532001.

Date/timePositionNaut miles runAvg speedWind from/ knotsBaromVisibWave heightAir tempDewpointWater temp
2018-Jan-10 15:52N 31°22' E 032°20'56 4.1
2018-Jan-10 02:26N 31°45' E 031°21'  
2018-Jan-06 13:31N 37°25' E 016°35'311.7
2018-Jan-06 13:18N 37°26' E 016°32'911.7
2018-Jan-06 12:31N 37°31' E 016°23'611.6
2018-Jan-06 11:59N 37°33' E 016°15'611.6
2018-Jan-06 11:30N 37°36' E 016°09'612.3
2018-Jan-06 11:00N 37°39' E 016°03'611.9
2018-Jan-06 10:31N 37°42' E 015°56'611.6
2018-Jan-06 10:01N 37°45' E 015°50'611.6
2018-Jan-06 09:30N 37°48' E 015°43'611.5
2018-Jan-06 09:00N 37°52' E 015°39'612.2
2018-Jan-06 08:30N 37°57' E 015°34'611.6
2018-Jan-06 08:01N 38°03' E 015°34'611.9
2018-Jan-06 07:31N 38°09' E 015°35'612.7
2018-Jan-06 07:01N 38°15' E 015°38'510.6
2018-Jan-06 06:30N 38°20' E 015°38'714.9
2018-Jan-06 06:01N 38°26' E 015°32'714.8
2018-Jan-06 05:30N 38°31' E 015°25'713.6
2018-Jan-06 05:00N 38°36' E 015°19'612.9
2018-Jan-06 04:30N 38°40' E 015°13'612.4
2018-Jan-06 04:00N 38°45' E 015°07'612.4
2018-Jan-06 03:30N 38°49' E 015°02'612.4
2018-Jan-06 03:00N 38°53' E 014°56'612.4
2018-Jan-06 02:30N 38°57' E 014°50'612.4
2018-Jan-06 02:00N 39°02' E 014°44'712.4
2018-Jan-06 01:28N 39°06' E 014°37'612.4
2018-Jan-06 01:00N 39°10' E 014°32'26012.4
2018-Jan-05 04:05N 42°04' E 010°18'111.9
2018-Jan-05 04:00N 42°05' E 010°16'2712.0
2018-Jan-05 01:44N 42°25' E 009°51'512.1
2018-Jan-05 01:21N 42°29' E 009°49'2812.7
2018-Jan-04 23:11N 42°55' E 009°38'212.4
2018-Jan-04 23:00N 42°57' E 009°37'612.6
2018-Jan-04 22:30N 43°04' E 009°35'612.1
2018-Jan-04 22:00N 43°09' E 009°34'612.1
2018-Jan-04 21:30N 43°15' E 009°32'611.6
2018-Jan-04 21:00N 43°21' E 009°29'611.7
2018-Jan-04 20:30N 43°27' E 009°27'612.0
2018-Jan-04 20:00N 43°32' E 009°25'612.4
2018-Jan-04 19:30N 43°38' E 009°23'612.6
2018-Jan-04 19:00N 43°44' E 009°19'612.5
2018-Jan-04 18:30N 43°50' E 009°16'612.4
2018-Jan-04 18:00N 43°56' E 009°13'612.4
2018-Jan-04 17:30N 44°01' E 009°09'612.0
2018-Jan-04 17:00N 44°07' E 009°06'611.7
2018-Jan-04 16:30N 44°12' E 009°02'612.1
2018-Jan-04 16:00N 44°18' E 008°59'612.2
2018-Jan-04 15:30N 44°23' E 008°56'2 4.1
2018-Jan-04 15:00N 44°24' E 008°54'0 0.0
2018-Jan-04 14:30N 44°24' E 008°54'0 0.0
2018-Jan-04 14:00N 44°24' E 008°54'0 0.0
2018-Jan-04 13:30N 44°24' E 008°54'0 0.0
2018-Jan-04 13:00N 44°24' E 008°54'0 0.0
2018-Jan-04 12:27N 44°24' E 008°54'0 0.0
2018-Jan-04 11:54N 44°24' E 008°54'0 0.0
2018-Jan-04 11:30N 44°24' E 008°54'0 0.0
2018-Jan-04 11:00N 44°24' E 008°54'0 0.0
2018-Jan-04 10:27N 44°24' E 008°54'0 0.0
2018-Jan-04 09:57N 44°24' E 008°54'0 0.0
2018-Jan-04 09:30N 44°24' E 008°54'0 0.0
2018-Jan-04 08:57N 44°24' E 008°54'0 0.0
2018-Jan-04 08:27N 44°24' E 008°54'0 0.0
2018-Jan-04 07:57N 44°24' E 008°54'0 0.0
2018-Jan-04 07:30N 44°24' E 008°54'0 0.0
2018-Jan-04 06:57N 44°24' E 008°54'0 0.0
2018-Jan-04 06:30N 44°24' E 008°54'0 0.0
2018-Jan-04 06:00N 44°24' E 008°54'0 0.0
2018-Jan-04 05:30N 44°24' E 008°54'0 0.5
2018-Jan-04 05:00N 44°24' E 008°54'3 6.2
2018-Jan-04 04:31N 44°23' E 008°58'3 6.1
2018-Jan-04 04:00N 44°20' E 008°59'3 5.1
2018-Jan-04 03:30N 44°17' E 008°59'5 9.2
2018-Jan-04 03:00N 44°13' E 008°58'611.1
2018-Jan-04 02:31N 44°07' E 008°57'611.4
2018-Jan-04 02:01N 44°01' E 008°56'713.2
2018-Jan-04 01:31N 43°56' E 008°50'713.2
2018-Jan-04 01:00N 43°51' E 008°44'713.3
2018-Jan-04 00:30N 43°47' E 008°38'713.5
2018-Jan-04 00:00N 43°42' E 008°31'713.5
2018-Jan-03 23:30N 43°37' E 008°25'713.3
2018-Jan-03 23:01N 43°32' E 008°19'713.5
2018-Jan-03 22:30N 43°27' E 008°13'713.4
2018-Jan-03 22:00N 43°22' E 008°06'4413.1
2018-Jan-03 18:41N 42°55' E 007°20'613.7
2018-Jan-03 18:14N 42°53' E 007°12'45912.8
2018-Jan-02 06:25N 37°43' W 000°13'613.7
2018-Jan-02 06:00N 37°38' W 000°17'713.6
2018-Jan-02 05:30N 37°33' W 000°22'1313.0
2018-Jan-02 04:30N 37°23' W 000°33'713.0
2018-Jan-02 04:00N 37°19' W 000°39'613.0
2018-Jan-02 03:30N 37°15' W 000°45'612.9
2018-Jan-02 03:00N 37°10' W 000°52'713.1
2018-Jan-02 02:30N 37°06' W 000°58'813.1
2018-Jan-02 01:54N 37°01' W 001°05'14413.2
2018-Jan-01 14:58N 36°07' W 003°51'912.5
2018-Jan-01 14:13N 36°05' W 004°03'313.6
2018-Jan-01 13:58N 36°05' W 004°07'5214.2
2018-Jan-01 10:18N 35°59' W 005°11'516.1
2018-Jan-01 10:01N 35°59' W 005°17'815.5
2018-Jan-01 09:30N 35°57' W 005°27'  
Track history (hours):
 
Tides and Currents Weather Stations Pressure Air Temp Water Temp Dewpoint Dewpoint Depression Visibility Wind Speed Wind Dir Waves Ship Positions

Bahri Yanbu

Last reported at 2018-Jan-10 15:52 UTC. Time now 2018-Jan-22 03:48 UTC.
Position N 31°22' E 032°20'.
Warning: this ship's position is 11 days out of date.

Length 205 m; draft 8 m.

Type: Cargo ship. MMSI: 403532001.

Date/timePositionNaut miles runAvg speedWind from/ knotsBaromVisibWave heightAir tempDewpointWater temp
2018-Jan-10 15:52N 31°22' E 032°20'56 4.1
2018-Jan-10 02:26N 31°45' E 031°21'  
2018-Jan-06 13:31N 37°25' E 016°35'311.7
2018-Jan-06 13:18N 37°26' E 016°32'911.7
2018-Jan-06 12:31N 37°31' E 016°23'611.6
2018-Jan-06 11:59N 37°33' E 016°15'611.6
2018-Jan-06 11:30N 37°36' E 016°09'612.3
2018-Jan-06 11:00N 37°39' E 016°03'611.9
2018-Jan-06 10:31N 37°42' E 015°56'611.6
2018-Jan-06 10:01N 37°45' E 015°50'611.6
2018-Jan-06 09:30N 37°48' E 015°43'611.5
2018-Jan-06 09:00N 37°52' E 015°39'612.2
2018-Jan-06 08:30N 37°57' E 015°34'611.6
2018-Jan-06 08:01N 38°03' E 015°34'611.9
2018-Jan-06 07:31N 38°09' E 015°35'612.7
2018-Jan-06 07:01N 38°15' E 015°38'510.6
2018-Jan-06 06:30N 38°20' E 015°38'714.9
2018-Jan-06 06:01N 38°26' E 015°32'714.8
2018-Jan-06 05:30N 38°31' E 015°25'713.6
2018-Jan-06 05:00N 38°36' E 015°19'612.9
2018-Jan-06 04:30N 38°40' E 015°13'612.4
2018-Jan-06 04:00N 38°45' E 015°07'612.4
2018-Jan-06 03:30N 38°49' E 015°02'612.4
2018-Jan-06 03:00N 38°53' E 014°56'612.4
2018-Jan-06 02:30N 38°57' E 014°50'612.4
2018-Jan-06 02:00N 39°02' E 014°44'712.4
2018-Jan-06 01:28N 39°06' E 014°37'612.4
2018-Jan-06 01:00N 39°10' E 014°32'26012.4
2018-Jan-05 04:05N 42°04' E 010°18'111.9
2018-Jan-05 04:00N 42°05' E 010°16'2712.0
2018-Jan-05 01:44N 42°25' E 009°51'512.1
2018-Jan-05 01:21N 42°29' E 009°49'2812.7
2018-Jan-04 23:11N 42°55' E 009°38'212.4
2018-Jan-04 23:00N 42°57' E 009°37'612.6
2018-Jan-04 22:30N 43°04' E 009°35'612.1
2018-Jan-04 22:00N 43°09' E 009°34'612.1
2018-Jan-04 21:30N 43°15' E 009°32'611.6
2018-Jan-04 21:00N 43°21' E 009°29'611.7
2018-Jan-04 20:30N 43°27' E 009°27'612.0
2018-Jan-04 20:00N 43°32' E 009°25'612.4
2018-Jan-04 19:30N 43°38' E 009°23'612.6
2018-Jan-04 19:00N 43°44' E 009°19'612.5
2018-Jan-04 18:30N 43°50' E 009°16'612.4
2018-Jan-04 18:00N 43°56' E 009°13'612.4
2018-Jan-04 17:30N 44°01' E 009°09'612.0
2018-Jan-04 17:00N 44°07' E 009°06'611.7
2018-Jan-04 16:30N 44°12' E 009°02'612.1
2018-Jan-04 16:00N 44°18' E 008°59'612.2
2018-Jan-04 15:30N 44°23' E 008°56'2 4.1
2018-Jan-04 15:00N 44°24' E 008°54'0 0.0
2018-Jan-04 14:30N 44°24' E 008°54'0 0.0
2018-Jan-04 14:00N 44°24' E 008°54'0 0.0
2018-Jan-04 13:30N 44°24' E 008°54'0 0.0
2018-Jan-04 13:00N 44°24' E 008°54'0 0.0
2018-Jan-04 12:27N 44°24' E 008°54'0 0.0
2018-Jan-04 11:54N 44°24' E 008°54'0 0.0
2018-Jan-04 11:30N 44°24' E 008°54'0 0.0
2018-Jan-04 11:00N 44°24' E 008°54'0 0.0
2018-Jan-04 10:27N 44°24' E 008°54'0 0.0
2018-Jan-04 09:57N 44°24' E 008°54'0 0.0
2018-Jan-04 09:30N 44°24' E 008°54'0 0.0
2018-Jan-04 08:57N 44°24' E 008°54'0 0.0
2018-Jan-04 08:27N 44°24' E 008°54'0 0.0
2018-Jan-04 07:57N 44°24' E 008°54'0 0.0
2018-Jan-04 07:30N 44°24' E 008°54'0 0.0
2018-Jan-04 06:57N 44°24' E 008°54'0 0.0
2018-Jan-04 06:30N 44°24' E 008°54'0 0.0
2018-Jan-04 06:00N 44°24' E 008°54'0 0.0
2018-Jan-04 05:30N 44°24' E 008°54'0 0.5
2018-Jan-04 05:00N 44°24' E 008°54'3 6.2
2018-Jan-04 04:31N 44°23' E 008°58'3 6.1
2018-Jan-04 04:00N 44°20' E 008°59'3 5.1
2018-Jan-04 03:30N 44°17' E 008°59'5 9.2
2018-Jan-04 03:00N 44°13' E 008°58'611.1
2018-Jan-04 02:31N 44°07' E 008°57'611.4
2018-Jan-04 02:01N 44°01' E 008°56'713.2
2018-Jan-04 01:31N 43°56' E 008°50'713.2
2018-Jan-04 01:00N 43°51' E 008°44'713.3
2018-Jan-04 00:30N 43°47' E 008°38'713.5
2018-Jan-04 00:00N 43°42' E 008°31'713.5
2018-Jan-03 23:30N 43°37' E 008°25'713.3
2018-Jan-03 23:01N 43°32' E 008°19'713.5
2018-Jan-03 22:30N 43°27' E 008°13'713.4
2018-Jan-03 22:00N 43°22' E 008°06'4413.1
2018-Jan-03 18:41N 42°55' E 007°20'613.7
2018-Jan-03 18:14N 42°53' E 007°12'45912.8
2018-Jan-02 06:25N 37°43' W 000°13'613.7
2018-Jan-02 06:00N 37°38' W 000°17'713.6
2018-Jan-02 05:30N 37°33' W 000°22'1313.0
2018-Jan-02 04:30N 37°23' W 000°33'713.0
2018-Jan-02 04:00N 37°19' W 000°39'613.0
2018-Jan-02 03:30N 37°15' W 000°45'612.9
2018-Jan-02 03:00N 37°10' W 000°52'713.1
2018-Jan-02 02:30N 37°06' W 000°58'813.1
2018-Jan-02 01:54N 37°01' W 001°05'14413.2
2018-Jan-01 14:58N 36°07' W 003°51'912.5
2018-Jan-01 14:13N 36°05' W 004°03'313.6
2018-Jan-01 13:58N 36°05' W 004°07'5214.2
2018-Jan-01 10:18N 35°59' W 005°11'516.1
2018-Jan-01 10:01N 35°59' W 005°17'815.5
2018-Jan-01 09:30N 35°57' W 005°27'  

Dump ship's entire track history